Time;durP1;ratioP1;P1;durP2;ratioP2;P2;SDS_P1;SDS_P2;PMS_P1;PMS_P2;Temp;Humidity;BMP_temperature;BMP_pressure;BME280_temperature;BME280_humidity;BME280_pressure;Samples;Min_cycle;Max_cycle;Signal;HPM_P1;HPM_P2
2023/11/15 00:00:06;;;;;;;13.20;8.90;;;;;;;5.98;71.67;93102.22;517390;28;741;-65
2023/11/15 00:00:21;;;;;;;15.10;9.48;;;;;;;6.02;71.48;93101.94;517370;28;832;-65
2023/11/15 00:00:36;;;;;;;14.20;9.37;;;;;;;6.01;71.11;93106.66;517321;28;820;-65
2023/11/15 00:00:52;;;;;;;13.73;8.85;;;;;;;6.04;71.26;93105.59;517604;28;820;-65
2023/11/15 00:01:07;;;;;;;13.67;8.77;;;;;;;6.05;71.21;93101.59;517343;28;820;-65
2023/11/15 00:01:23;;;;;;;10.85;8.38;;;;;;;6.08;71.22;93108.03;517633;28;749;-65
2023/11/15 00:01:38;;;;;;;9.77;7.77;;;;;;;6.10;70.67;93105.50;517518;28;816;-65
2023/11/15 00:01:53;;;;;;;10.23;7.33;;;;;;;6.10;70.60;93109.00;517563;28;823;-65
2023/11/15 00:02:11;;;;;;;11.75;7.13;;;;;;;5.88;70.40;93073.78;517544;28;809;-64
2023/11/15 00:02:26;;;;;;;11.15;7.63;;;;;;;6.12;70.19;93116.66;517249;28;899;-65
2023/11/15 00:02:41;;;;;;;12.20;8.23;;;;;;;6.13;70.27;93107.91;517624;28;820;-65
2023/11/15 00:02:57;;;;;;;11.20;7.43;;;;;;;6.15;70.16;93109.41;517694;28;765;-65
2023/11/15 00:03:12;;;;;;;9.53;6.93;;;;;;;6.13;69.88;93112.66;517490;28;757;-65
2023/11/15 00:03:27;;;;;;;10.67;7.83;;;;;;;6.13;69.85;93111.94;517442;28;1025;-65
2023/11/15 00:03:43;;;;;;;10.38;8.32;;;;;;;6.10;69.68;93106.25;517767;28;845;-65
2023/11/15 00:03:58;;;;;;;9.97;8.13;;;;;;;6.07;69.42;93104.56;517447;28;784;-65
2023/11/15 00:04:14;;;;;;;12.10;8.53;;;;;;;6.05;69.54;93101.59;517546;28;856;-65
2023/11/15 00:04:29;;;;;;;13.00;8.80;;;;;;;6.05;69.87;93106.34;517536;28;838;-65
2023/11/15 00:04:45;;;;;;;11.85;8.98;;;;;;;6.01;69.79;93101.19;517713;28;896;-65
2023/11/15 00:05:02;;;;;;;11.27;8.63;;;;;;;6.01;70.04;93101.19;517622;28;822;-65
2023/11/15 00:05:17;;;;;;;11.15;8.20;;;;;;;6.02;69.93;93101.94;514969;28;916;-65
2023/11/15 00:05:33;;;;;;;12.80;8.02;;;;;;;6.03;69.82;93093.16;515419;28;908;-65
2023/11/15 00:05:48;;;;;;;12.27;7.80;;;;;;;6.04;69.57;93096.66;515362;28;833;-65
2023/11/15 00:06:05;;;;;;;11.45;8.27;;;;;;;6.03;69.59;93098.66;515457;28;805;-65
2023/11/15 00:06:20;;;;;;;10.35;8.20;;;;;;;6.05;69.65;93103.59;515230;28;1919;-65
2023/11/15 00:06:35;;;;;;;8.97;7.70;;;;;;;6.05;69.54;93106.34;515296;28;753;-65
2023/11/15 00:06:51;;;;;;;8.32;7.40;;;;;;;6.03;69.80;93104.13;515636;28;769;-65
2023/11/15 00:07:07;;;;;;;9.23;7.60;;;;;;;6.03;69.63;93097.91;516019;28;848;-65
2023/11/15 00:07:22;;;;;;;10.60;8.03;;;;;;;6.03;69.83;93106.13;517529;28;836;-65
2023/11/15 00:07:38;;;;;;;10.83;7.87;;;;;;;6.02;69.45;93107.41;517647;28;792;-65
2023/11/15 00:07:55;;;;;;;10.00;7.13;;;;;;;5.98;69.68;93113.19;515484;28;1216;-65
2023/11/15 00:08:10;;;;;;;11.65;7.45;;;;;;;5.89;69.68;93097.16;515522;28;915;-64
2023/11/15 00:08:26;;;;;;;11.80;7.93;;;;;;;5.96;69.61;93107.50;515468;28;745;-65
2023/11/15 00:08:41;;;;;;;9.40;7.47;;;;;;;5.96;69.60;93110.25;515581;28;801;-65
2023/11/15 00:08:57;;;;;;;9.30;7.50;;;;;;;5.96;69.66;93109.50;515688;28;788;-65
2023/11/15 00:09:12;;;;;;;9.23;6.97;;;;;;;5.97;69.51;93110.97;515456;28;984;-65
2023/11/15 00:09:29;;;;;;;7.93;6.00;;;;;;;5.98;69.65;93109.72;515413;28;817;-65
2023/11/15 00:09:44;;;;;;;8.93;6.82;;;;;;;5.92;69.46;93112.56;515681;28;837;-65
2023/11/15 00:09:59;;;;;;;9.67;7.17;;;;;;;5.87;69.93;93109.91;515529;28;816;-65
2023/11/15 00:10:15;;;;;;;9.40;6.70;;;;;;;5.82;69.72;93108.00;515560;28;1028;-65
2023/11/15 00:10:31;;;;;;;9.73;6.83;;;;;;;5.81;70.09;93101.78;515407;28;1032;-65
2023/11/15 00:10:47;;;;;;;9.32;6.63;;;;;;;5.82;69.83;93110.75;515667;28;865;-65
2023/11/15 00:11:03;;;;;;;9.38;6.43;;;;;;;5.82;69.91;93108.00;515564;28;801;-65
2023/11/15 00:11:19;;;;;;;8.40;5.90;;;;;;;5.84;69.84;93108.25;515471;28;932;-65
2023/11/15 00:11:35;;;;;;;6.77;5.30;;;;;;;5.82;69.80;93106.00;515548;28;1079;-65
2023/11/15 00:11:51;;;;;;;6.03;5.13;;;;;;;5.78;69.69;93104.84;515597;28;1616;-65
2023/11/15 00:12:07;;;;;;;5.85;5.10;;;;;;;5.72;69.90;93102.19;515639;28;941;-65
2023/11/15 00:12:24;;;;;;;5.63;5.03;;;;;;;5.70;70.12;93099.25;515480;28;903;-65
2023/11/15 00:12:42;;;;;;;5.90;5.07;;;;;;;5.71;70.00;93100.72;515536;28;908;-65
2023/11/15 00:12:57;;;;;;;7.22;5.28;;;;;;;5.53;69.65;93067.94;515619;28;814;-65
2023/11/15 00:13:13;;;;;;;8.77;5.20;;;;;;;5.76;69.92;93104.63;515653;28;872;-65
2023/11/15 00:13:28;;;;;;;8.65;5.35;;;;;;;5.76;69.70;93099.88;515404;28;1068;-64
2023/11/15 00:13:45;;;;;;;7.77;5.17;;;;;;;5.77;69.95;93106.84;515514;28;777;-65
2023/11/15 00:14:01;;;;;;;8.10;5.20;;;;;;;5.79;69.91;93107.06;515499;28;833;-64
2023/11/15 00:14:16;;;;;;;7.40;5.47;;;;;;;5.80;69.78;93099.56;515648;28;868;-65
2023/11/15 00:14:31;;;;;;;9.07;5.60;;;;;;;5.81;69.87;93104.53;515462;28;777;-65
2023/11/15 00:14:47;;;;;;;9.27;5.45;;;;;;;5.84;69.46;93097.28;515496;28;766;-65
2023/11/15 00:15:03;;;;;;;6.20;5.03;;;;;;;5.85;69.65;93104.97;515571;28;745;-65
2023/11/15 00:15:19;;;;;;;6.25;5.28;;;;;;;5.85;69.49;93099.50;515676;28;811;-65
2023/11/15 00:15:34;;;;;;;6.00;5.10;;;;;;;5.81;69.50;93090.06;515607;28;761;-65
2023/11/15 00:15:50;;;;;;;7.05;5.07;;;;;;;5.88;69.52;93100.44;515514;28;793;-65
2023/11/15 00:16:06;;;;;;;7.88;5.35;;;;;;;5.88;69.43;93098.44;515357;28;911;-65
2023/11/15 00:16:22;;;;;;;7.40;5.30;;;;;;;5.89;69.59;93090.97;515602;28;864;-65
2023/11/15 00:16:37;;;;;;;7.50;5.37;;;;;;;5.74;69.41;93069.53;515421;28;868;-65
2023/11/15 00:16:52;;;;;;;8.70;5.83;;;;;;;5.89;69.57;93099.91;515649;28;907;-65
2023/11/15 00:17:08;;;;;;;7.82;5.65;;;;;;;5.90;69.39;93097.91;515479;28;844;-65
2023/11/15 00:17:23;;;;;;;6.90;5.20;;;;;;;5.90;69.40;93097.91;515504;28;1140;-65
2023/11/15 00:17:39;;;;;;;8.13;5.63;;;;;;;5.90;69.36;93095.91;515540;28;762;-65
2023/11/15 00:17:54;;;;;;;7.85;5.57;;;;;;;5.90;69.49;93101.41;515240;28;1099;-64
2023/11/15 00:18:09;;;;;;;7.33;5.07;;;;;;;5.90;69.29;93095.91;515481;28;746;-65
2023/11/15 00:18:25;;;;;;;8.43;5.05;;;;;;;5.90;69.10;93093.19;517187;28;1241;-65
2023/11/15 00:18:40;;;;;;;7.80;5.17;;;;;;;5.89;69.09;93094.44;517714;28;789;-65
2023/11/15 00:18:55;;;;;;;7.57;4.87;;;;;;;5.90;68.85;93095.16;517522;28;749;-65
2023/11/15 00:19:11;;;;;;;9.68;4.70;;;;;;;5.89;68.92;93093.72;517699;28;816;-64
2023/11/15 00:19:30;;;;;;;9.10;4.70;;;;;;;5.88;68.89;93097.69;517646;28;891;-65
2023/11/15 00:19:46;;;;;;;6.03;4.32;;;;;;;5.87;69.13;93096.97;517380;28;959;-65
2023/11/15 00:20:03;;;;;;;5.35;4.35;;;;;;;5.80;69.21;93083.88;517266;28;855;-65
2023/11/15 00:20:18;;;;;;;5.90;4.65;;;;;;;5.88;69.13;93097.69;517415;28;1594;-65
2023/11/15 00:20:34;;;;;;;7.65;5.03;;;;;;;5.87;68.89;93096.22;517526;28;899;-65
2023/11/15 00:20:51;;;;;;;6.77;5.23;;;;;;;5.88;69.01;93100.44;517678;28;789;-65
2023/11/15 00:21:06;;;;;;;6.50;5.00;;;;;;;5.89;68.96;93099.19;517233;28;900;-65
2023/11/15 00:21:22;;;;;;;7.87;4.87;;;;;;;5.90;69.21;93106.13;517456;28;832;-65
2023/11/15 00:21:37;;;;;;;6.88;4.90;;;;;;;5.89;69.39;93096.44;515274;28;813;-65
2023/11/15 00:21:52;;;;;;;7.90;5.33;;;;;;;5.86;68.85;93106.47;515432;28;812;-65
2023/11/15 00:22:09;;;;;;;7.28;5.07;;;;;;;5.84;69.21;93108.97;515203;28;856;-65
2023/11/15 00:22:25;;;;;;;5.10;4.35;;;;;;;5.84;69.24;93111.72;515077;28;860;-65
2023/11/15 00:22:41;;;;;;;6.60;4.47;;;;;;;5.85;69.45;93112.44;515162;28;857;-65
2023/11/15 00:22:56;;;;;;;8.18;4.50;;;;;;;5.85;69.64;93110.44;515486;28;763;-65
2023/11/15 00:23:12;;;;;;;7.57;4.53;;;;;;;5.85;69.51;93107.72;515264;28;930;-65
2023/11/15 00:23:27;;;;;;;6.30;4.57;;;;;;;5.86;69.69;93102.97;515766;28;824;-65
2023/11/15 00:23:42;;;;;;;6.53;4.80;;;;;;;5.85;69.47;93099.50;517578;28;737;-65
2023/11/15 00:23:58;;;;;;;6.57;5.00;;;;;;;5.86;69.63;93094.75;517462;28;827;-65
2023/11/15 00:24:13;;;;;;;6.18;4.70;;;;;;;5.87;69.65;93096.97;517381;28;825;-65
2023/11/15 00:24:28;;;;;;;6.90;4.80;;;;;;;5.85;69.57;93099.50;517230;28;909;-65
2023/11/15 00:24:44;;;;;;;6.18;4.60;;;;;;;5.81;68.99;93098.28;517701;28;907;-65
2023/11/15 00:25:00;;;;;;;5.67;4.47;;;;;;;5.72;69.19;93091.22;517577;28;894;-65
2023/11/15 00:25:15;;;;;;;7.70;5.10;;;;;;;5.68;68.97;93093.56;517521;28;745;-65
2023/11/15 00:25:31;;;;;;;10.67;5.37;;;;;;;5.64;68.91;93087.66;517452;28;848;-65
2023/11/15 00:25:46;;;;;;;9.70;5.07;;;;;;;5.60;69.46;93089.22;517668;28;788;-65
2023/11/15 00:26:02;;;;;;;6.80;5.20;;;;;;;5.57;69.52;93091.00;517308;28;862;-64
2023/11/15 00:26:17;;;;;;;7.80;5.45;;;;;;;5.58;69.47;93089.75;517308;28;857;-65
2023/11/15 00:26:33;;;;;;;8.50;5.10;;;;;;;5.60;69.26;93089.22;517334;28;1914;-65
2023/11/15 00:26:50;;;;;;;7.63;5.00;;;;;;;5.60;69.59;93087.22;517681;28;808;-65
2023/11/15 00:27:05;;;;;;;6.47;4.65;;;;;;;5.64;69.45;93084.91;517194;28;1163;-65
2023/11/15 00:27:21;;;;;;;5.50;4.40;;;;;;;5.66;69.69;93087.13;517469;28;868;-65
2023/11/15 00:27:36;;;;;;;6.20;4.83;;;;;;;5.68;69.28;93085.34;517631;28;789;-65
2023/11/15 00:27:51;;;;;;;7.23;5.07;;;;;;;5.70;69.34;93088.28;517686;28;1069;-65
2023/11/15 00:28:08;;;;;;;9.18;5.75;;;;;;;5.73;69.74;93092.72;517569;28;753;-65
2023/11/15 00:28:23;;;;;;;12.88;6.32;;;;;;;5.74;69.63;93085.25;517422;28;1000;-65
2023/11/15 00:28:39;;;;;;;11.23;6.13;;;;;;;5.75;69.55;93079.25;517571;28;1175;-65
2023/11/15 00:28:54;;;;;;;11.07;5.85;;;;;;;5.77;69.82;93086.91;517683;28;844;-65
2023/11/15 00:29:10;;;;;;;11.60;5.83;;;;;;;5.78;69.56;93083.66;517595;28;1089;-65
2023/11/15 00:29:25;;;;;;;10.88;6.10;;;;;;;5.80;69.57;93081.16;517467;28;757;-65
2023/11/15 00:29:40;;;;;;;9.00;5.67;;;;;;;5.79;69.53;93074.19;517661;28;903;-65
2023/11/15 00:29:56;;;;;;;7.07;5.60;;;;;;;5.80;69.55;93081.16;517415;28;852;-65
2023/11/15 00:30:12;;;;;;;6.93;5.47;;;;;;;5.79;69.42;93087.88;517449;28;769;-65
2023/11/15 00:30:27;;;;;;;7.80;6.07;;;;;;;5.81;69.63;93081.84;517242;28;797;-65
2023/11/15 00:30:43;;;;;;;7.60;6.30;;;;;;;5.82;69.33;93088.81;513719;28;746;-65
2023/11/15 00:30:58;;;;;;;7.22;5.97;;;;;;;5.82;69.50;93086.84;513431;28;1155;-65
2023/11/15 00:31:13;;;;;;;8.20;6.17;;;;;;;5.84;69.18;93089.06;513426;28;805;-65
2023/11/15 00:31:29;;;;;;;7.50;6.15;;;;;;;5.85;69.33;93085.78;513622;28;840;-65
2023/11/15 00:31:45;;;;;;;7.70;6.37;;;;;;;5.84;68.95;93089.81;513659;28;1266;-65
2023/11/15 00:32:00;;;;;;;9.70;6.47;;;;;;;5.85;69.01;93083.06;513532;28;785;-65
2023/11/15 00:32:19;;;;;;;10.33;6.43;;;;;;;5.85;68.93;93080.31;513635;28;926;-65
2023/11/15 00:32:34;;;;;;;8.38;6.07;;;;;;;5.82;68.98;93078.63;513436;28;915;-65
2023/11/15 00:32:50;;;;;;;10.57;6.57;;;;;;;5.84;68.75;93078.84;513355;28;1030;-65
2023/11/15 00:33:05;;;;;;;13.52;6.82;;;;;;;5.85;68.94;93085.03;513566;28;1071;-65
2023/11/15 00:33:21;;;;;;;13.53;6.77;;;;;;;5.85;68.90;93083.06;513231;28;865;-65
2023/11/15 00:33:37;;;;;;;14.45;6.85;;;;;;;5.86;68.74;93078.31;513430;28;773;-65
2023/11/15 00:33:53;;;;;;;12.25;6.57;;;;;;;5.85;68.58;93083.06;513420;28;1250;-65
2023/11/15 00:34:10;;;;;;;8.93;6.28;;;;;;;5.82;68.77;93083.34;513567;28;784;-65
2023/11/15 00:34:26;;;;;;;7.40;5.70;;;;;;;5.84;68.45;93086.31;513181;28;903;-65
2023/11/15 00:34:41;;;;;;;8.27;5.88;;;;;;;5.83;68.72;93079.34;513295;28;900;-65
2023/11/15 00:34:56;;;;;;;9.27;6.57;;;;;;;5.81;68.90;93082.59;513363;28;825;-65
2023/11/15 00:35:12;;;;;;;9.38;6.32;;;;;;;5.50;69.77;93072.47;513674;28;790;-65
2023/11/15 00:35:28;;;;;;;9.43;6.00;;;;;;;5.39;70.11;93078.88;511103;29;782;-65
2023/11/15 00:35:43;;;;;;;9.23;5.90;;;;;;;5.44;70.25;93077.31;511347;29;995;-65
2023/11/15 00:35:59;;;;;;;8.88;5.95;;;;;;;5.47;70.44;93078.25;511244;29;875;-65
2023/11/15 00:36:19;;;;;;;8.67;6.07;;;;;;;5.46;70.16;93076.78;511377;29;849;-65
2023/11/15 00:36:37;;;;;;;8.20;5.80;;;;;;;5.48;70.46;93080.47;511201;29;872;-65
2023/11/15 00:36:53;;;;;;;9.38;6.30;;;;;;;5.49;70.44;93087.44;511227;29;973;-66
2023/11/15 00:37:10;;;;;;;9.43;6.40;;;;;;;5.53;70.37;93090.59;511118;29;837;-65
2023/11/15 00:37:26;;;;;;;10.85;6.72;;;;;;;5.55;70.25;93088.06;512810;28;887;-65
2023/11/15 00:37:42;;;;;;;10.90;7.10;;;;;;;5.58;70.34;93089.03;513455;28;871;-65
2023/11/15 00:37:58;;;;;;;10.60;7.32;;;;;;;5.59;70.35;93080.28;513481;28;860;-66
2023/11/15 00:38:14;;;;;;;9.20;6.57;;;;;;;5.55;70.33;93076.38;513381;28;925;-65
2023/11/15 00:38:30;;;;;;;8.00;5.90;;;;;;;5.40;70.79;93076.88;513238;28;892;-65
2023/11/15 00:38:46;;;;;;;7.93;5.95;;;;;;;5.37;71.09;93075.91;513537;28;868;-65
2023/11/15 00:39:01;;;;;;;8.85;6.20;;;;;;;5.33;70.80;93078.25;513465;28;963;-64
2023/11/15 00:39:17;;;;;;;9.43;6.50;;;;;;;5.29;70.90;93080.53;513492;28;1033;-65
2023/11/15 00:39:33;;;;;;;9.68;6.43;;;;;;;5.30;70.74;93079.31;513477;28;817;-66
2023/11/15 00:39:48;;;;;;;9.65;6.25;;;;;;;5.32;71.09;93070.56;513355;28;1134;-65
2023/11/15 00:40:04;;;;;;;9.87;6.80;;;;;;;5.35;71.12;93080.44;513426;28;845;-65
2023/11/15 00:40:20;;;;;;;10.10;7.20;;;;;;;5.37;70.85;93067.72;513449;28;892;-64
2023/11/15 00:40:35;;;;;;;8.90;6.78;;;;;;;5.41;70.61;93066.69;513188;28;963;-65
2023/11/15 00:40:51;;;;;;;7.80;6.20;;;;;;;5.43;70.86;93059.41;513536;28;838;-66
2023/11/15 00:41:08;;;;;;;8.30;6.17;;;;;;;5.44;70.82;93058.13;513515;28;896;-65
2023/11/15 00:41:23;;;;;;;8.80;6.15;;;;;;;5.47;70.21;93067.31;513234;28;946;-65
2023/11/15 00:41:40;;;;;;;8.30;6.07;;;;;;;5.47;70.46;93068.06;513496;28;984;-65
2023/11/15 00:41:55;;;;;;;7.80;5.80;;;;;;;5.48;70.28;93077.00;513374;28;1616;-65
2023/11/15 00:42:11;;;;;;;8.60;5.73;;;;;;;5.49;70.50;93076.47;513525;28;899;-65
2023/11/15 00:42:26;;;;;;;8.90;6.00;;;;;;;5.50;70.49;93088.16;513265;28;805;-65
2023/11/15 00:42:43;;;;;;;9.20;6.25;;;;;;;5.28;70.78;93057.16;513269;28;1164;-66
2023/11/15 00:42:58;;;;;;;8.55;6.35;;;;;;;5.53;70.53;93084.38;513417;28;821;-65
2023/11/15 00:43:15;;;;;;;8.33;6.10;;;;;;;5.53;70.84;93078.88;513512;28;805;-65
2023/11/15 00:43:30;;;;;;;8.15;6.07;;;;;;;5.55;70.65;93079.09;513340;28;1012;-65
2023/11/15 00:43:46;;;;;;;8.07;6.30;;;;;;;5.55;71.02;93077.09;513326;28;821;-66
2023/11/15 00:44:06;;;;;;;9.77;6.53;;;;;;;5.56;71.04;93066.91;513332;28;1101;-66
2023/11/15 00:44:22;;;;;;;9.43;6.63;;;;;;;5.55;70.61;93073.63;513362;28;1097;-65
2023/11/15 00:44:38;;;;;;;7.90;6.47;;;;;;;5.50;70.81;93074.47;513495;28;762;-65
2023/11/15 00:44:54;;;;;;;7.97;6.10;;;;;;;5.58;70.72;93080.81;513133;28;924;-66
2023/11/15 00:45:11;;;;;;;7.90;5.80;;;;;;;5.58;70.96;93081.53;513393;28;1060;-65
2023/11/15 00:45:27;;;;;;;9.13;5.85;;;;;;;5.58;70.97;93087.03;513268;28;1269;-66
2023/11/15 00:45:43;;;;;;;12.43;6.35;;;;;;;5.58;70.85;93089.75;513717;28;810;-65
2023/11/15 00:45:59;;;;;;;11.13;6.65;;;;;;;5.58;71.03;93097.97;513398;28;1084;-66
2023/11/15 00:46:15;;;;;;;11.63;8.20;;;;;;;5.55;70.62;93090.81;513450;28;813;-65
2023/11/15 00:46:32;;;;;;;13.65;8.70;;;;;;;5.54;70.90;93099.56;513080;28;1992;-66
2023/11/15 00:46:47;;;;;;;13.68;7.95;;;;;;;5.54;70.79;93099.56;513616;28;841;-66
2023/11/15 00:47:03;;;;;;;14.20;8.30;;;;;;;5.54;70.94;93096.81;513479;28;777;-65
2023/11/15 00:47:18;;;;;;;12.98;8.50;;;;;;;5.55;70.80;93101.00;513482;28;831;-65
2023/11/15 00:47:34;;;;;;;12.47;8.23;;;;;;;5.55;70.80;93101.00;513506;28;1050;-66
2023/11/15 00:47:51;;;;;;;11.45;8.15;;;;;;;5.56;70.91;93099.75;513591;28;853;-65
2023/11/15 00:48:06;;;;;;;11.70;8.40;;;;;;;5.57;70.55;93096.50;513438;28;907;-66
2023/11/15 00:48:21;;;;;;;14.23;9.10;;;;;;;5.57;70.91;93085.53;514343;28;1218;-65
2023/11/15 00:48:37;;;;;;;17.05;10.77;;;;;;;5.55;70.50;93090.81;517388;28;864;-65
2023/11/15 00:48:53;;;;;;;17.73;11.70;;;;;;;5.50;70.17;93083.41;517629;28;1031;-65
2023/11/15 00:49:08;;;;;;;18.08;10.95;;;;;;;5.46;69.82;93090.50;517441;28;837;-65
2023/11/15 00:49:23;;;;;;;16.67;10.33;;;;;;;5.41;70.13;93086.59;517486;28;900;-66
2023/11/15 00:49:40;;;;;;;13.97;10.00;;;;;;;5.41;70.06;93083.09;517690;28;761;-65
2023/11/15 00:49:55;;;;;;;15.88;10.50;;;;;;;5.40;70.29;93082.34;517568;28;1224;-65
2023/11/15 00:50:11;;;;;;;16.90;10.63;;;;;;;5.40;70.38;93076.88;517453;28;749;-65
2023/11/15 00:50:26;;;;;;;13.90;10.23;;;;;;;5.43;70.33;93075.09;517499;28;785;-65
2023/11/15 00:50:42;;;;;;;16.17;10.87;;;;;;;5.45;70.00;93078.03;517451;28;880;-66
2023/11/15 00:50:57;;;;;;;17.52;10.57;;;;;;;5.45;70.16;93081.53;517643;28;824;-66
2023/11/15 00:51:12;;;;;;;17.87;10.00;;;;;;;5.46;70.03;93074.78;517491;28;884;-65
2023/11/15 00:51:28;;;;;;;17.60;10.30;;;;;;;5.49;70.13;93081.22;517341;28;827;-65
2023/11/15 00:51:43;;;;;;;15.07;10.35;;;;;;;5.48;70.05;93085.94;517564;28;845;-65
2023/11/15 00:51:58;;;;;;;15.40;10.17;;;;;;;5.48;69.70;93077.00;517452;28;1224;-65
2023/11/15 00:52:14;;;;;;;14.55;9.45;;;;;;;5.48;69.73;93077.00;517389;28;741;-64
2023/11/15 00:52:30;;;;;;;13.67;9.23;;;;;;;5.50;69.83;93079.97;517398;28;853;-65
2023/11/15 00:52:46;;;;;;;14.80;10.10;;;;;;;5.51;69.89;93084.16;517562;28;1275;-64
2023/11/15 00:53:03;;;;;;;16.30;10.13;;;;;;;5.46;69.54;93080.25;517502;28;852;-65
2023/11/15 00:53:19;;;;;;;16.02;9.95;;;;;;;5.23;70.62;93079.91;517182;28;1201;-65
2023/11/15 00:53:35;;;;;;;14.27;10.05;;;;;;;5.21;70.65;93076.22;515394;28;813;-64
2023/11/15 00:53:50;;;;;;;14.23;9.85;;;;;;;5.17;70.25;93064.84;515508;28;872;-65
2023/11/15 00:54:06;;;;;;;14.83;9.60;;;;;;;5.21;70.47;93070.75;515570;28;753;-65
2023/11/15 00:54:22;;;;;;;15.95;10.00;;;;;;;5.24;70.60;93075.91;515545;28;842;-65
2023/11/15 00:54:38;;;;;;;16.08;10.45;;;;;;;5.21;70.50;93068.00;515448;28;880;-65
2023/11/15 00:54:53;;;;;;;16.23;10.43;;;;;;;5.18;70.29;93069.03;515559;28;853;-65
2023/11/15 00:55:09;;;;;;;17.70;11.30;;;;;;;5.20;70.23;93075.47;515606;28;859;-65
2023/11/15 00:55:24;;;;;;;18.95;11.93;;;;;;;5.23;70.25;93068.97;515406;28;762;-65
2023/11/15 00:55:42;;;;;;;22.50;12.33;;;;;;;5.25;70.08;93068.44;515649;28;765;-65
2023/11/15 00:55:57;;;;;;;20.58;11.68;;;;;;;5.21;69.93;93068.00;515403;28;815;-65
2023/11/15 00:56:13;;;;;;;17.40;11.17;;;;;;;5.19;69.88;93068.53;515462;28;814;-64
2023/11/15 00:56:28;;;;;;;20.95;12.65;;;;;;;5.18;70.07;93077.25;513185;28;2234;-65
2023/11/15 00:56:44;;;;;;;21.42;13.30;;;;;;;5.17;69.75;93067.59;513440;28;878;-65
2023/11/15 00:57:00;;;;;;;18.43;11.97;;;;;;;5.14;70.13;93074.84;513351;28;1150;-65
2023/11/15 00:57:15;;;;;;;15.60;10.05;;;;;;;5.13;70.67;93086.31;513486;28;844;-65
2023/11/15 00:57:31;;;;;;;15.37;9.40;;;;;;;5.14;70.11;93080.31;513273;28;794;-65
2023/11/15 00:57:46;;;;;;;16.27;9.70;;;;;;;5.17;70.30;93084.00;513345;28;829;-64
2023/11/15 00:58:03;;;;;;;16.17;9.83;;;;;;;5.21;70.52;93081.69;513780;28;1130;-65
2023/11/15 00:58:19;;;;;;;16.15;9.68;;;;;;;5.22;70.10;93078.41;516065;28;996;-65
2023/11/15 00:58:38;;;;;;;14.90;9.63;;;;;;;5.20;70.07;93070.00;517455;28;888;-65
2023/11/15 00:58:56;;;;;;;14.80;9.75;;;;;;;5.21;70.33;93068.00;517611;28;844;-65
2023/11/15 00:59:12;;;;;;;16.33;10.27;;;;;;;5.17;69.92;93071.06;517486;28;883;-65
2023/11/15 00:59:36;;;;;;;16.75;10.02;;;;;;;5.15;70.53;93059.16;517388;28;877;-64
2023/11/15 00:59:55;;;;;;;16.25;9.55;;;;;;;5.17;70.38;93060.13;517547;28;1011;-65
2023/11/15 01:00:37;;;;;;;15.00;9.18;;;;;;;4.96;69.92;93034.56;517568;28;920;-64
2023/11/15 01:00:49;;;;;;;14.05;8.10;;;;;;;5.14;70.52;93072.09;516901;28;1973;-65
2023/11/15 01:01:10;;;;;;;9.88;5.90;;;;;;;5.13;70.44;93067.16;517576;28;858;-65
2023/11/15 01:01:27;;;;;;;14.07;8.38;;;;;;;5.13;70.46;93072.63;517389;28;980;-65
2023/11/15 01:01:43;;;;;;;14.85;9.20;;;;;;;5.16;70.63;93074.28;517407;28;1140;-64
2023/11/15 01:01:59;;;;;;;11.98;7.60;;;;;;;5.18;71.10;93074.50;517358;28;1093;-64
2023/11/15 01:02:16;;;;;;;11.82;7.32;;;;;;;5.20;71.13;93083.69;517401;28;1198;-64
2023/11/15 01:02:35;;;;;;;12.48;7.95;;;;;;;5.23;70.85;93071.69;517590;28;936;-65
2023/11/15 01:02:54;;;;;;;12.32;7.90;;;;;;;5.26;70.79;93072.66;517616;28;844;-64
2023/11/15 01:03:12;;;;;;;13.75;8.38;;;;;;;5.28;70.94;93070.13;518184;28;927;-64
2023/11/15 01:03:29;;;;;;;13.13;8.15;;;;;;;5.30;70.45;93073.09;517562;28;844;-64
2023/11/15 01:03:55;;;;;;;11.88;7.53;;;;;;;5.17;70.34;93051.91;517524;28;967;-64
2023/11/15 01:04:11;;;;;;;11.52;7.80;;;;;;;5.31;70.45;93074.53;517492;28;860;-65
2023/11/15 01:04:27;;;;;;;12.32;8.40;;;;;;;5.31;70.13;93077.28;517474;28;804;-65
2023/11/15 01:04:43;;;;;;;12.05;8.27;;;;;;;5.33;70.52;93077.50;517461;28;1552;-65
2023/11/15 01:04:59;;;;;;;10.73;7.65;;;;;;;5.33;70.12;93080.22;517626;28;832;-64
2023/11/15 01:05:15;;;;;;;10.25;7.60;;;;;;;5.35;70.44;93080.44;517538;28;852;-64
2023/11/15 01:05:30;;;;;;;10.88;7.53;;;;;;;5.35;70.95;93086.66;517529;28;840;-64
2023/11/15 01:05:46;;;;;;;10.07;7.20;;;;;;;5.33;70.30;93080.22;517413;28;829;-65
2023/11/15 01:06:01;;;;;;;10.48;7.00;;;;;;;5.37;70.51;93080.69;517506;28;796;-65
2023/11/15 01:06:17;;;;;;;12.07;7.33;;;;;;;5.37;70.61;93084.13;517494;28;772;-65
2023/11/15 01:06:32;;;;;;;11.25;7.32;;;;;;;5.36;70.56;93079.19;517093;28;1975;-65
2023/11/15 01:06:47;;;;;;;9.63;6.77;;;;;;;5.36;70.02;93074.47;517623;28;757;-65
2023/11/15 01:07:03;;;;;;;9.33;6.50;;;;;;;5.37;69.43;93073.19;517592;28;935;-65
2023/11/15 01:07:19;;;;;;;9.30;6.32;;;;;;;5.37;69.50;93075.22;517471;28;813;-65
2023/11/15 01:07:34;;;;;;;11.68;6.90;;;;;;;5.38;69.34;93074.66;517542;28;816;-65
2023/11/15 01:07:50;;;;;;;12.50;7.57;;;;;;;5.38;69.31;93074.66;516039;28;1146;-64
2023/11/15 01:08:05;;;;;;;11.40;7.97;;;;;;;5.39;69.24;93075.41;515404;28;900;-65
2023/11/15 01:08:23;;;;;;;10.87;7.93;;;;;;;5.40;69.21;93079.63;515518;28;766;-65
2023/11/15 01:08:39;;;;;;;12.35;7.30;;;;;;;5.39;68.89;93078.88;515404;28;840;-65
2023/11/15 01:08:57;;;;;;;12.05;7.25;;;;;;;5.40;69.23;93071.41;515658;28;852;-65
2023/11/15 01:09:14;;;;;;;10.50;7.13;;;;;;;5.40;69.41;93071.41;515595;28;835;-65
2023/11/15 01:09:29;;;;;;;12.38;7.85;;;;;;;5.35;69.31;93072.22;515542;28;914;-65
2023/11/15 01:09:45;;;;;;;10.60;8.00;;;;;;;5.34;69.20;93063.31;515488;28;785;-65
2023/11/15 01:10:00;;;;;;;10.57;7.60;;;;;;;5.34;69.39;93068.03;515304;28;907;-65
2023/11/15 01:10:18;;;;;;;11.80;7.83;;;;;;;5.27;69.30;93047.50;515546;28;876;-65
2023/11/15 01:10:33;;;;;;;12.70;8.85;;;;;;;5.35;69.47;93064.03;515476;28;1050;-65
2023/11/15 01:10:51;;;;;;;16.17;9.83;;;;;;;5.34;69.68;93063.31;515536;28;793;-65
2023/11/15 01:11:06;;;;;;;17.55;9.98;;;;;;;5.36;69.39;93062.78;515477;28;868;-65
2023/11/15 01:11:23;;;;;;;16.77;10.33;;;;;;;5.36;69.24;93054.56;515399;28;1530;-65
2023/11/15 01:11:38;;;;;;;14.80;9.85;;;;;;;5.37;69.25;93059.50;513398;28;2258;-65
2023/11/15 01:11:55;;;;;;;14.97;9.50;;;;;;;5.37;69.44;93061.53;513270;28;984;-65
2023/11/15 01:12:10;;;;;;;16.15;10.15;;;;;;;5.39;69.41;93061.72;513250;28;940;-65
2023/11/15 01:12:26;;;;;;;14.67;10.03;;;;;;;5.38;69.70;93060.25;513217;28;960;-65
2023/11/15 01:12:41;;;;;;;14.63;10.30;;;;;;;5.24;69.27;93040.31;513542;28;820;-65
2023/11/15 01:12:57;;;;;;;15.70;10.30;;;;;;;5.41;69.26;93061.94;513255;28;1486;-65
2023/11/15 01:13:14;;;;;;;16.88;10.23;;;;;;;5.43;69.40;93064.91;513198;28;861;-65
2023/11/15 01:13:29;;;;;;;15.35;9.75;;;;;;;5.42;69.24;93068.13;513765;28;928;-64
2023/11/15 01:13:47;;;;;;;14.75;9.93;;;;;;;5.39;69.40;93067.22;515602;28;840;-65
2023/11/15 01:14:03;;;;;;;15.32;10.30;;;;;;;5.41;69.39;93074.88;515332;28;896;-65
2023/11/15 01:14:19;;;;;;;13.27;9.35;;;;;;;5.43;69.73;93078.59;515247;28;920;-65
2023/11/15 01:14:35;;;;;;;12.82;8.55;;;;;;;5.44;69.48;93077.31;515332;28;858;-65
2023/11/15 01:14:50;;;;;;;12.75;8.73;;;;;;;5.45;69.90;93078.78;515416;28;837;-65
2023/11/15 01:15:06;;;;;;;14.07;9.60;;;;;;;5.47;69.98;93075.53;515534;28;825;-65
2023/11/15 01:15:22;;;;;;;13.90;9.32;;;;;;;5.48;69.47;93071.53;515398;28;848;-65
2023/11/15 01:15:37;;;;;;;14.85;9.75;;;;;;;5.48;69.31;93077.00;515339;28;765;-65
2023/11/15 01:15:53;;;;;;;14.37;9.93;;;;;;;5.49;69.40;93084.69;515437;28;820;-65
2023/11/15 01:16:08;;;;;;;12.23;8.93;;;;;;;5.49;69.67;93081.22;515485;28;847;-65
2023/11/15 01:16:23;;;;;;;13.33;9.17;;;;;;;5.51;69.37;93089.63;515312;28;821;-65
2023/11/15 01:16:39;;;;;;;17.90;9.80;;;;;;;5.50;69.36;93091.63;515263;28;836;-65
2023/11/15 01:16:54;;;;;;;16.73;9.52;;;;;;;5.47;69.78;93081.75;515382;28;821;-65
2023/11/15 01:17:10;;;;;;;13.10;9.50;;;;;;;5.47;70.06;93079.00;515443;28;821;-65
2023/11/15 01:17:25;;;;;;;14.35;9.75;;;;;;;5.46;69.67;93080.25;515460;28;1047;-64
2023/11/15 01:17:41;;;;;;;15.63;9.83;;;;;;;5.47;69.44;93076.25;515877;28;885;-65
2023/11/15 01:17:57;;;;;;;16.25;10.05;;;;;;;5.45;69.70;93076.06;515732;28;1283;-65
2023/11/15 01:18:13;;;;;;;15.90;9.98;;;;;;;5.31;70.01;93063.59;515871;28;1154;-65
2023/11/15 01:18:29;;;;;;;15.30;9.95;;;;;;;5.43;70.05;93092.28;515615;28;829;-65